Time;durP1;ratioP1;P1;durP2;ratioP2;P2;SDS_P1;SDS_P2;PMS_P1;PMS_P2;Temp;Humidity;BMP_temperature;BMP_pressure;BME280_temperature;BME280_humidity;BME280_pressure;Samples;Min_cycle;Max_cycle;Signal;HPM_P1;HPM_P2
2023/06/15 00:00:13;;;;;;;0.57;0.57;;;14.90;55.50;;;;;;5034991;28;20535;-69
2023/06/15 00:02:40;;;;;;;0.50;0.50;;;14.80;62.40;;;;;;5038855;28;20657;-69
2023/06/15 00:05:10;;;;;;;0.57;0.57;;;14.80;69.90;;;;;;5039950;28;20444;-70
2023/06/15 00:07:37;;;;;;;0.80;0.50;;;14.80;76.90;;;;;;5037877;28;20530;-69
2023/06/15 00:10:06;;;;;;;0.67;0.67;;;14.80;87.50;;;;;;5038734;28;20433;-69
2023/06/15 00:12:33;;;;;;;0.50;0.50;;;14.80;91.30;;;;;;5040166;28;20795;-69
2023/06/15 00:15:27;;;;;;;0.63;0.63;;;14.80;95.00;;;;;;5017236;28;20564;-69
2023/06/15 00:17:54;;;;;;;0.90;0.70;;;14.80;98.20;;;;;;5039517;28;20442;-69
2023/06/15 00:20:28;;;;;;;0.63;0.63;;;14.80;99.90;;;;;;5039752;28;20851;-69
2023/06/15 00:22:58;;;;;;;0.60;0.60;;;14.80;99.90;;;;;;5034913;28;20569;-69
2023/06/15 00:25:24;;;;;;;0.70;0.70;;;14.80;99.90;;;;;;5036086;28;20537;-69
2023/06/15 00:28:10;;;;;;;0.65;0.65;;;14.80;99.90;;;;;;5071718;28;20437;-69
2023/06/15 00:30:36;;;;;;;0.68;0.68;;;14.70;99.90;;;;;;5037673;28;20466;-69
2023/06/15 00:33:06;;;;;;;0.68;0.65;;;14.80;99.90;;;;;;5036678;28;20777;-69
2023/06/15 00:35:33;;;;;;;0.73;0.60;;;14.80;99.90;;;;;;5038753;28;20516;-69
2023/06/15 00:38:00;;;;;;;0.60;0.60;;;14.90;99.90;;;;;;5038833;28;20424;-69
2023/06/15 00:40:27;;;;;;;0.60;0.60;;;14.90;99.90;;;;;;5038084;28;20429;-70
2023/06/15 00:42:54;;;;;;;0.70;0.65;;;14.80;99.90;;;;;;5034702;28;20520;-69
2023/06/15 00:45:20;;;;;;;0.50;0.50;;;14.70;99.90;;;;;;5038801;28;20429;-69
2023/06/15 00:47:47;;;;;;;0.98;0.90;;;14.70;99.90;;;;;;5039859;28;20935;-69
2023/06/15 00:50:18;;;;;;;0.50;0.50;;;14.70;99.90;;;;;;5038989;28;20421;-69
2023/06/15 00:52:48;;;;;;;0.80;0.80;;;14.70;99.90;;;;;;5039458;28;20438;-69
2023/06/15 00:55:15;;;;;;;0.43;0.43;;;14.60;99.90;;;;;;5036134;28;20436;-69
2023/06/15 00:57:49;;;;;;;1.02;0.50;;;14.60;99.90;;;;;;5039719;28;20455;-69
2023/06/15 01:00:17;;;;;;;0.65;0.65;;;14.60;99.90;;;;;;5040867;28;20436;-69
2023/06/15 01:02:48;;;;;;;0.50;0.50;;;14.70;99.90;;;;;;5039166;28;20463;-69
2023/06/15 01:05:17;;;;;;;0.63;0.63;;;14.70;99.90;;;;;;5037393;28;20438;-69
2023/06/15 01:07:47;;;;;;;0.65;0.65;;;14.60;99.90;;;;;;5067606;28;20441;-69
2023/06/15 01:10:19;;;;;;;0.43;0.43;;;14.60;99.90;;;;;;5035627;28;20425;-69
2023/06/15 01:12:50;;;;;;;0.60;0.60;;;14.60;99.90;;;;;;5041368;28;20966;-70
2023/06/15 01:15:18;;;;;;;0.60;0.60;;;14.60;99.90;;;;;;5041033;28;20908;-69
2023/06/15 01:17:46;;;;;;;0.50;0.50;;;14.60;99.90;;;;;;5042613;28;20537;-69
2023/06/15 01:20:21;;;;;;;0.77;0.60;;;14.70;99.90;;;;;;5043287;28;20460;-69
2023/06/15 01:23:19;;;;;;;0.70;0.70;;;14.70;99.90;;;;;;5041172;28;20440;-69
2023/06/15 01:25:46;;;;;;;0.70;0.70;;;14.70;99.90;;;;;;5038881;28;20524;-69
2023/06/15 01:28:17;;;;;;;0.52;0.52;;;14.60;99.90;;;;;;5041052;28;20490;-69
2023/06/15 01:30:47;;;;;;;0.50;0.50;;;14.60;99.90;;;;;;5036506;28;20476;-69
2023/06/15 01:33:15;;;;;;;0.70;0.70;;;14.50;99.90;;;;;;5036599;28;20429;-70
2023/06/15 01:35:41;;;;;;;0.52;0.52;;;14.60;99.90;;;;;;5041937;28;20433;-70
2023/06/15 01:38:09;;;;;;;0.80;0.80;;;14.60;99.90;;;;;;5040293;28;20460;-69
2023/06/15 01:40:42;;;;;;;0.50;0.50;;;14.60;99.90;;;;;;5042329;28;20520;-70
2023/06/15 01:43:12;;;;;;;0.65;0.65;;;14.60;99.90;;;;;;5042255;28;20703;-70
2023/06/15 01:45:42;;;;;;;0.63;0.63;;;14.60;99.90;;;;;;5042111;28;20464;-70
2023/06/15 01:48:10;;;;;;;0.75;0.60;;;14.50;99.90;;;;;;5042476;28;20439;-70
2023/06/15 01:50:38;;;;;;;0.47;0.47;;;14.50;99.90;;;;;;5037516;28;21174;-70
2023/06/15 01:53:04;;;;;;;0.68;0.68;;;14.40;99.90;;;;;;5043166;28;20509;-70
2023/06/15 01:55:32;;;;;;;0.55;0.55;;;14.30;99.90;;;;;;5042116;28;20550;-70
2023/06/15 01:57:59;;;;;;;0.80;0.80;;;14.20;99.90;;;;;;5039477;28;20494;-70
2023/06/15 02:00:27;;;;;;;0.90;0.60;;;14.30;99.90;;;;;;5039059;28;20996;-70
2023/06/15 02:02:54;;;;;;;0.60;0.60;;;14.30;99.90;;;;;;5039040;28;20436;-69
2023/06/15 02:05:21;;;;;;;0.60;0.60;;;14.30;99.90;;;;;;5041495;28;20926;-69
2023/06/15 02:07:48;;;;;;;0.50;0.50;;;14.20;99.90;;;;;;5039992;28;20421;-70
2023/06/15 02:10:15;;;;;;;0.40;0.40;;;14.30;99.90;;;;;;5041559;28;20521;-69
2023/06/15 02:12:42;;;;;;;0.73;0.43;;;14.30;99.90;;;;;;5043427;28;20517;-70
2023/06/15 02:15:09;;;;;;;0.60;0.60;;;14.30;99.90;;;;;;5040474;28;20522;-69
2023/06/15 02:17:41;;;;;;;0.70;0.70;;;14.20;99.90;;;;;;5039208;28;20442;-70
2023/06/15 02:20:12;;;;;;;0.75;0.75;;;14.20;99.90;;;;;;5040531;28;20530;-70
2023/06/15 02:22:39;;;;;;;0.60;0.50;;;14.20;99.90;;;;;;5040946;28;20518;-70
2023/06/15 02:25:08;;;;;;;0.53;0.53;;;14.10;99.90;;;;;;5040331;28;20563;-70
2023/06/15 02:27:35;;;;;;;0.77;0.77;;;14.10;99.90;;;;;;5037555;28;20479;-70
2023/06/15 02:30:02;;;;;;;0.50;0.50;;;14.20;99.90;;;;;;5073029;28;20989;-70
2023/06/15 02:32:37;;;;;;;0.40;0.40;;;14.20;99.90;;;;;;5036792;28;20455;-69
2023/06/15 02:35:09;;;;;;;0.75;0.75;;;14.20;99.90;;;;;;5067246;28;20468;-69
2023/06/15 02:37:41;;;;;;;0.60;0.60;;;14.20;99.90;;;;;;5038341;28;20437;-70
2023/06/15 02:40:09;;;;;;;0.43;0.43;;;14.10;99.90;;;;;;5042705;28;20521;-70
2023/06/15 02:42:36;;;;;;;0.60;0.50;;;14.10;99.90;;;;;;5041293;28;20425;-70
2023/06/15 02:45:06;;;;;;;0.70;0.70;;;14.10;99.90;;;;;;5026986;28;20439;-75
2023/06/15 02:47:35;;;;;;;0.80;0.80;;;14.10;99.90;;;;;;5035788;28;20429;-70
2023/06/15 02:50:05;;;;;;;0.90;0.70;;;14.00;99.90;;;;;;5041359;28;20766;-70
2023/06/15 02:52:32;;;;;;;0.55;0.55;;;14.00;99.90;;;;;;5040344;28;20433;-70
2023/06/15 02:54:59;;;;;;;0.50;0.50;;;14.00;99.90;;;;;;5040575;28;21013;-70
2023/06/15 02:57:27;;;;;;;0.70;0.70;;;14.00;99.90;;;;;;5070150;28;20461;-70
2023/06/15 02:59:55;;;;;;;0.63;0.57;;;14.00;99.90;;;;;;5043218;28;20425;-70
2023/06/15 03:02:22;;;;;;;0.63;0.63;;;13.90;99.90;;;;;;5060313;28;20886;-70
2023/06/15 03:04:50;;;;;;;0.70;0.70;;;13.90;99.90;;;;;;5037924;28;20458;-70
2023/06/15 03:07:20;;;;;;;0.90;0.80;;;14.00;99.90;;;;;;5040899;28;20441;-70
2023/06/15 03:09:47;;;;;;;0.80;0.80;;;14.00;99.90;;;;;;5071920;28;20425;-70
2023/06/15 03:12:15;;;;;;;0.68;0.68;;;14.00;99.90;;;;;;5043566;28;20433;-70
2023/06/15 03:14:49;;;;;;;0.70;0.70;;;14.00;99.90;;;;;;5037540;28;20441;-70
2023/06/15 03:17:21;;;;;;;0.65;0.65;;;13.90;99.90;;;;;;5070474;28;20465;-70
2023/06/15 03:19:48;;;;;;;0.65;0.65;;;14.00;99.90;;;;;;5064161;28;21154;-71
2023/06/15 03:22:16;;;;;;;0.82;0.82;;;14.00;99.90;;;;;;5038653;28;20803;-70
2023/06/15 03:24:43;;;;;;;0.80;0.80;;;14.10;99.90;;;;;;5039562;28;20437;-70
2023/06/15 03:27:11;;;;;;;0.47;0.47;;;14.10;99.90;;;;;;5038449;28;21939;-70
2023/06/15 03:29:38;;;;;;;0.80;0.70;;;14.20;99.90;;;;;;5041266;28;20429;-70
2023/06/15 03:32:08;;;;;;;0.60;0.50;;;14.20;99.90;;;;;;5040496;28;20490;-70
2023/06/15 03:34:37;;;;;;;0.50;0.50;;;14.20;99.90;;;;;;5039683;28;20455;-70
2023/06/15 03:37:05;;;;;;;0.70;0.50;;;14.20;99.90;;;;;;5031293;28;22459;-70
2023/06/15 03:39:32;;;;;;;0.65;0.65;;;14.20;99.90;;;;;;5031543;28;20433;-70
2023/06/15 03:41:59;;;;;;;0.80;0.80;;;14.20;99.90;;;;;;5038336;28;20425;-70
2023/06/15 03:44:31;;;;;;;0.77;0.77;;;14.20;99.90;;;;;;5034869;28;20512;-70
2023/06/15 03:46:58;;;;;;;0.63;0.63;;;14.20;99.90;;;;;;5036501;28;20468;-70
2023/06/15 03:49:24;;;;;;;0.70;0.70;;;14.20;99.90;;;;;;5040577;28;20455;-70
2023/06/15 03:51:51;;;;;;;0.65;0.65;;;14.20;99.90;;;;;;5040004;28;20482;-70
2023/06/15 03:54:18;;;;;;;0.52;0.52;;;14.20;99.90;;;;;;5035117;28;23510;-70
2023/06/15 03:56:45;;;;;;;0.60;0.60;;;14.30;99.90;;;;;;5029691;28;20448;-70
2023/06/15 03:59:11;;;;;;;0.90;0.70;;;14.30;99.90;;;;;;5030955;28;20465;-70
2023/06/15 04:01:38;;;;;;;0.60;0.60;;;14.30;99.90;;;;;;5032227;28;20521;-70
2023/06/15 04:04:05;;;;;;;0.70;0.70;;;14.40;99.90;;;;;;5042410;28;21010;-70
2023/06/15 04:06:32;;;;;;;0.93;0.73;;;14.40;99.90;;;;;;5040821;28;20516;-70
2023/06/15 04:08:59;;;;;;;0.63;0.63;;;14.40;99.90;;;;;;5036218;28;20515;-70
2023/06/15 04:11:26;;;;;;;1.02;0.88;;;14.40;99.90;;;;;;5043193;28;20429;-70
2023/06/15 04:13:53;;;;;;;0.60;0.60;;;14.50;99.90;;;;;;5041933;28;20506;-70
2023/06/15 04:16:20;;;;;;;0.50;0.50;;;14.50;99.90;;;;;;5037011;28;20429;-70
2023/06/15 04:18:47;;;;;;;0.63;0.57;;;14.50;99.90;;;;;;5028496;28;20443;-70
2023/06/15 04:21:14;;;;;;;0.70;0.70;;;14.50;99.90;;;;;;5029231;28;20921;-70
2023/06/15 04:23:42;;;;;;;0.85;0.80;;;14.50;99.90;;;;;;5031552;28;20441;-70
2023/06/15 04:26:09;;;;;;;0.80;0.80;;;14.50;99.90;;;;;;5030721;28;20505;-70
2023/06/15 04:28:36;;;;;;;0.68;0.68;;;14.60;99.90;;;;;;5029323;28;20961;-70
2023/06/15 04:31:12;;;;;;;0.55;0.55;;;14.60;99.90;;;;;;5030145;28;20514;-70
2023/06/15 04:33:42;;;;;;;0.32;0.32;;;14.60;99.90;;;;;;5031261;28;20430;-70
2023/06/15 04:36:13;;;;;;;0.73;0.73;;;14.70;99.90;;;;;;5031581;28;20464;-70
2023/06/15 04:38:48;;;;;;;0.75;0.75;;;14.70;99.90;;;;;;5031535;28;20544;-70
2023/06/15 04:41:16;;;;;;;0.75;0.75;;;14.90;99.90;;;;;;5036056;28;20425;-71
2023/06/15 04:43:43;;;;;;;0.90;0.90;;;15.30;99.90;;;;;;5046005;28;20432;-69
2023/06/15 04:46:14;;;;;;;0.50;0.50;;;16.00;99.90;;;;;;5034181;28;20876;-69
2023/06/15 04:48:43;;;;;;;0.70;0.70;;;16.80;99.90;;;;;;5032219;28;21349;-70
2023/06/15 04:51:11;;;;;;;1.10;0.70;;;17.40;99.90;;;;;;5034448;28;20946;-70
2023/06/15 04:53:44;;;;;;;0.90;0.60;;;18.20;99.90;;;;;;5034576;28;20782;-70
2023/06/15 04:56:18;;;;;;;0.85;0.85;;;19.00;99.90;;;;;;5033655;28;20440;-70
2023/06/15 04:58:45;;;;;;;1.23;0.95;;;19.90;99.90;;;;;;5033280;28;20443;-70
2023/06/15 05:01:11;;;;;;;1.02;0.65;;;20.60;99.90;;;;;;5033302;28;20448;-70
2023/06/15 05:03:38;;;;;;;0.80;0.80;;;21.20;99.00;;;;;;5032173;28;20454;-69
2023/06/15 05:06:05;;;;;;;0.88;0.88;;;21.70;97.80;;;;;;5034097;28;20805;-70
2023/06/15 05:08:33;;;;;;;0.67;0.67;;;21.90;95.20;;;;;;5033196;28;20436;-70
2023/06/15 05:11:00;;;;;;;0.77;0.77;;;22.20;93.90;;;;;;5040737;28;21004;-70
2023/06/15 05:13:28;;;;;;;0.85;0.85;;;22.30;92.40;;;;;;5032063;28;21080;-70
2023/06/15 05:15:55;;;;;;;0.75;0.75;;;22.50;91.50;;;;;;5041768;28;20437;-70
2023/06/15 05:18:25;;;;;;;0.73;0.73;;;22.60;90.90;;;;;;5042661;28;20488;-70
2023/06/15 05:20:53;;;;;;;0.70;0.70;;;22.80;90.20;;;;;;5038138;28;20437;-71
2023/06/15 05:23:19;;;;;;;0.80;0.80;;;23.20;90.10;;;;;;5041189;28;20703;-72
2023/06/15 05:25:46;;;;;;;1.00;1.00;;;23.20;88.60;;;;;;5041011;28;20433;-70
2023/06/15 05:28:14;;;;;;;0.98;0.98;;;23.30;87.90;;;;;;5042863;28;20433;-70
2023/06/15 05:30:41;;;;;;;0.70;0.70;;;23.60;87.80;;;;;;5030020;28;20912;-70
2023/06/15 05:33:07;;;;;;;0.80;0.80;;;23.90;88.10;;;;;;5032367;28;20475;-70
2023/06/15 05:35:34;;;;;;;1.10;0.85;;;24.10;87.80;;;;;;5033759;28;20635;-70
2023/06/15 05:38:02;;;;;;;0.90;0.90;;;24.10;87.50;;;;;;5032498;28;20973;-70
2023/06/15 05:40:28;;;;;;;0.80;0.80;;;23.90;83.80;;;;;;5031361;28;20429;-70
2023/06/15 05:42:56;;;;;;;0.93;0.88;;;23.80;82.30;;;;;;5035176;28;20433;-70
2023/06/15 05:45:24;;;;;;;0.65;0.65;;;24.00;82.20;;;;;;5034506;28;20888;-70
2023/06/15 05:47:53;;;;;;;1.30;0.80;;;23.90;80.90;;;;;;5036573;28;20915;-70
2023/06/15 05:50:20;;;;;;;0.90;0.90;;;24.10;81.90;;;;;;5032896;28;21009;-70
2023/06/15 05:52:47;;;;;;;0.70;0.70;;;24.40;82.30;;;;;;5036103;28;20446;-70
2023/06/15 05:55:14;;;;;;;0.70;0.70;;;24.60;82.60;;;;;;5032269;28;20437;-70
2023/06/15 05:57:41;;;;;;;0.70;0.70;;;24.10;78.10;;;;;;5032680;28;21025;-70
2023/06/15 06:00:15;;;;;;;0.57;0.57;;;23.80;75.90;;;;;;5031687;28;20429;-70
2023/06/15 06:02:42;;;;;;;0.73;0.70;;;24.10;77.20;;;;;;5041617;28;20429;-70
2023/06/15 06:05:10;;;;;;;0.50;0.50;;;24.60;80.40;;;;;;5039105;28;20463;-70
2023/06/15 06:07:37;;;;;;;0.80;0.80;;;25.00;80.90;;;;;;5042078;28;20421;-70
2023/06/15 06:10:04;;;;;;;0.70;0.70;;;24.90;78.60;;;;;;5040184;28;20433;-70
2023/06/15 06:12:31;;;;;;;2.55;0.68;;;24.90;77.80;;;;;;5044318;28;20457;-71
2023/06/15 06:15:00;;;;;;;0.73;0.73;;;24.70;75.30;;;;;;5043602;28;20432;-70
2023/06/15 06:17:27;;;;;;;0.80;0.80;;;24.80;75.70;;;;;;5042088;28;20428;-70
2023/06/15 06:20:14;;;;;;;0.88;0.88;;;24.50;73.10;;;;;;5037443;28;20429;-70
2023/06/15 06:22:43;;;;;;;0.73;0.73;;;24.60;72.70;;;;;;5037885;28;20433;-70
2023/06/15 06:25:11;;;;;;;2.40;0.80;;;24.60;76.10;;;;;;5038517;28;20425;-71
2023/06/15 06:27:38;;;;;;;0.60;0.60;;;24.60;71.60;;;;;;5040653;28;21186;-71
2023/06/15 06:30:05;;;;;;;1.37;0.80;;;24.80;72.10;;;;;;5041851;28;20426;-71
2023/06/15 06:32:32;;;;;;;0.73;0.73;;;24.70;71.40;;;;;;5042250;28;20511;-70
2023/06/15 06:34:59;;;;;;;0.63;0.63;;;25.10;72.90;;;;;;5039883;28;20433;-70
2023/06/15 06:37:26;;;;;;;0.80;0.70;;;25.80;77.00;;;;;;5041165;28;20436;-70
2023/06/15 06:39:53;;;;;;;0.77;0.77;;;25.60;74.40;;;;;;5039713;28;21026;-70
2023/06/15 06:42:20;;;;;;;0.68;0.68;;;25.90;76.40;;;;;;5039791;28;20445;-70
2023/06/15 06:44:47;;;;;;;1.17;1.00;;;26.10;76.70;;;;;;5069073;28;20436;-70
2023/06/15 06:47:14;;;;;;;2.17;0.95;;;26.10;75.90;;;;;;5041459;28;20451;-70
2023/06/15 06:49:40;;;;;;;1.02;0.95;;;26.20;76.80;;;;;;5039127;28;21001;-70
2023/06/15 06:52:08;;;;;;;0.90;0.90;;;26.40;77.20;;;;;;5041374;28;21014;-70
2023/06/15 06:54:35;;;;;;;1.05;1.05;;;26.30;76.40;;;;;;5037912;28;20482;-71
2023/06/15 06:57:03;;;;;;;0.90;0.90;;;26.50;76.90;;;;;;5038681;28;20656;-71
2023/06/15 06:59:30;;;;;;;0.70;0.70;;;26.50;76.20;;;;;;5033097;28;20516;-71
2023/06/15 07:02:10;;;;;;;1.00;0.75;;;26.60;76.70;;;;;;5036197;28;20433;-71
2023/06/15 07:04:37;;;;;;;0.82;0.82;;;26.60;76.30;;;;;;5036764;28;20435;-71
2023/06/15 07:07:04;;;;;;;0.80;0.80;;;26.40;74.90;;;;;;5039100;28;20435;-71
2023/06/15 07:09:31;;;;;;;0.88;0.88;;;26.80;76.20;;;;;;5040298;28;20784;-71
2023/06/15 07:11:58;;;;;;;0.70;0.70;;;27.00;78.40;;;;;;5056713;28;20467;-71
2023/06/15 07:14:25;;;;;;;0.63;0.63;;;27.40;79.60;;;;;;5038798;28;20433;-71
2023/06/15 07:16:51;;;;;;;0.60;0.60;;;27.40;78.60;;;;;;5036080;28;20432;-71
2023/06/15 07:19:18;;;;;;;0.80;0.80;;;27.30;78.10;;;;;;5032758;28;20643;-69
2023/06/15 07:21:45;;;;;;;0.70;0.70;;;27.10;75.70;;;;;;5036149;28;20450;-70
2023/06/15 07:24:12;;;;;;;0.68;0.68;;;27.20;76.00;;;;;;5034077;28;20774;-69
2023/06/15 07:26:40;;;;;;;0.70;0.70;;;27.10;76.00;;;;;;5033143;28;21006;-69
2023/06/15 07:29:06;;;;;;;0.70;0.70;;;27.10;90.00;;;;;;5064443;28;20502;-69
2023/06/15 07:31:33;;;;;;;0.70;0.70;;;27.20;76.30;;;;;;5036648;28;20504;-69
2023/06/15 07:34:02;;;;;;;0.77;0.77;;;27.20;75.20;;;;;;5039430;28;21720;-71
2023/06/15 07:36:29;;;;;;;0.75;0.75;;;27.30;90.00;;;;;;5035385;28;20441;-71
2023/06/15 07:38:56;;;;;;;0.70;0.70;;;27.60;76.50;;;;;;5042735;28;20479;-71
2023/06/15 07:41:23;;;;;;;1.00;1.00;;;27.60;75.90;;;;;;5036879;28;20443;-71
2023/06/15 07:43:52;;;;;;;0.80;0.60;;;27.70;77.00;;;;;;5037831;28;21099;-70
2023/06/15 07:46:20;;;;;;;0.73;0.73;;;27.60;76.20;;;;;;5035508;28;20461;-71
2023/06/15 07:48:46;;;;;;;0.80;0.80;;;27.30;75.10;;;;;;5037028;28;20536;-69
2023/06/15 07:51:13;;;;;;;0.90;0.90;;;27.60;75.10;;;;;;5037852;28;20425;-69
2023/06/15 07:54:03;;;;;;;0.90;0.90;;;27.10;73.10;;;;;;5037247;28;20428;-70
2023/06/15 07:56:29;;;;;;;0.70;0.70;;;27.60;79.70;;;;;;5038237;28;20916;-69
2023/06/15 07:58:59;;;;;;;0.80;0.80;;;28.40;79.20;;;;;;5039948;28;20563;-69
2023/06/15 08:01:26;;;;;;;0.77;0.77;;;28.50;79.70;;;;;;5027535;28;20433;-69
2023/06/15 08:03:53;;;;;;;0.73;0.73;;;27.90;75.70;;;;;;5039053;28;20432;-69
2023/06/15 08:06:20;;;;;;;0.68;0.68;;;27.80;74.60;;;;;;5035592;28;20440;-70
2023/06/15 08:08:46;;;;;;;1.00;0.90;;;28.10;75.90;;;;;;5037668;28;21083;-69
2023/06/15 08:11:20;;;;;;;0.60;0.60;;;28.00;75.90;;;;;;5067562;28;20931;-69
2023/06/15 08:13:48;;;;;;;0.75;0.75;;;28.10;75.60;;;;;;5037179;28;20504;-70
2023/06/15 08:16:14;;;;;;;0.63;0.63;;;27.40;71.20;;;;;;5037415;28;20794;-69
2023/06/15 08:18:41;;;;;;;0.90;0.90;;;27.50;72.30;;;;;;5036722;28;20564;-70
2023/06/15 08:21:08;;;;;;;0.70;0.70;;;27.10;70.10;;;;;;5033965;28;20938;-70
2023/06/15 08:23:35;;;;;;;0.68;0.68;;;26.70;67.10;;;;;;5038708;28;20504;-69
2023/06/15 08:26:04;;;;;;;1.00;1.00;;;26.60;66.80;;;;;;5043699;28;20565;-70
2023/06/15 08:28:34;;;;;;;0.70;0.70;;;27.30;70.20;;;;;;5041368;28;20449;-69
2023/06/15 08:31:21;;;;;;;0.82;0.82;;;26.60;66.50;;;;;;5044654;28;20558;-69
2023/06/15 08:33:48;;;;;;;0.83;0.83;;;26.60;66.00;;;;;;5041395;28;20428;-70
2023/06/15 08:36:15;;;;;;;0.85;0.80;;;27.10;68.60;;;;;;5041480;28;20867;-70
2023/06/15 08:38:42;;;;;;;0.82;0.82;;;27.60;82.30;;;;;;5036815;28;20494;-70
2023/06/15 08:41:10;;;;;;;0.80;0.80;;;28.00;73.50;;;;;;5039984;28;21012;-69
2023/06/15 08:43:40;;;;;;;0.60;0.60;;;28.10;74.40;;;;;;5040308;28;20516;-70
2023/06/15 08:46:07;;;;;;;0.70;0.70;;;28.20;74.80;;;;;;5040790;28;20468;-69
2023/06/15 08:48:37;;;;;;;2.47;0.88;;;28.20;73.10;;;;;;5074299;28;20514;-69
2023/06/15 08:51:05;;;;;;;1.00;1.00;;;28.20;73.70;;;;;;5042329;28;20433;-69
2023/06/15 08:53:37;;;;;;;0.70;0.70;;;28.20;71.80;;;;;;5043929;28;20471;-69
2023/06/15 08:56:11;;;;;;;3.17;0.80;;;28.30;71.70;;;;;;5041543;28;20425;-69
2023/06/15 08:58:39;;;;;;;0.85;0.85;;;28.20;70.80;;;;;;5040534;28;20511;-69
2023/06/15 09:01:07;;;;;;;0.90;0.90;;;27.20;65.70;;;;;;5038372;28;20498;-70
2023/06/15 09:03:34;;;;;;;0.88;0.88;;;27.00;64.20;;;;;;5040141;28;20452;-69
2023/06/15 09:06:04;;;;;;;0.82;0.82;;;27.10;64.30;;;;;;5040579;28;21152;-69
2023/06/15 09:08:31;;;;;;;0.70;0.70;;;27.40;66.90;;;;;;5039289;28;20436;-69
2023/06/15 09:11:08;;;;;;;0.70;0.70;;;27.40;67.10;;;;;;5074207;28;20508;-69
2023/06/15 09:13:35;;;;;;;0.90;0.90;;;27.90;68.50;;;;;;5039029;28;20436;-70
2023/06/15 09:16:03;;;;;;;0.65;0.65;;;28.40;70.90;;;;;;5036867;28;20850;-70
2023/06/15 09:18:45;;;;;;;0.57;0.57;;;28.20;71.30;;;;;;5039095;28;20493;-70
2023/06/15 09:21:13;;;;;;;0.70;0.70;;;28.50;70.90;;;;;;5035801;28;20464;-70
2023/06/15 09:23:42;;;;;;;0.77;0.77;;;28.50;70.70;;;;;;5039466;28;20425;-70
2023/06/15 09:26:26;;;;;;;0.70;0.70;;;28.00;67.50;;;;;;5041514;28;20436;-70
2023/06/15 09:28:57;;;;;;;1.47;0.70;;;27.90;66.00;;;;;;5038632;28;20890;-70
2023/06/15 09:31:34;;;;;;;2.10;0.98;;;27.90;66.40;;;;;;5043423;28;20464;-70
2023/06/15 09:34:14;;;;;;;1.42;0.90;;;27.80;66.80;;;;;;5039770;28;21027;-70
2023/06/15 09:36:44;;;;;;;0.70;0.70;;;28.20;68.30;;;;;;5038313;28;20464;-70
2023/06/15 09:39:13;;;;;;;0.80;0.80;;;28.50;70.20;;;;;;5039675;28;20437;-70
2023/06/15 09:42:00;;;;;;;1.08;1.08;;;28.60;71.30;;;;;;5037535;28;20434;-70
2023/06/15 09:44:33;;;;;;;1.00;1.00;;;28.90;72.70;;;;;;5035669;28;20429;-70
2023/06/15 09:47:01;;;;;;;0.90;0.90;;;29.30;74.30;;;;;;5032759;28;20932;-70
2023/06/15 09:49:31;;;;;;;0.80;0.80;;;29.80;75.30;;;;;;5034275;28;20527;-71
2023/06/15 09:52:00;;;;;;;0.67;0.67;;;29.30;73.90;;;;;;5035798;28;20609;-70
2023/06/15 09:54:30;;;;;;;1.15;1.08;;;28.30;67.10;;;;;;5034373;28;20441;-70
2023/06/15 09:56:59;;;;;;;0.80;0.80;;;28.40;67.50;;;;;;5038029;28;20997;-70
2023/06/15 09:59:26;;;;;;;0.82;0.82;;;28.00;65.70;;;;;;5035110;28;20425;-70
2023/06/15 10:01:59;;;;;;;1.10;1.00;;;27.60;63.80;;;;;;5029062;28;20429;-70
2023/06/15 10:04:30;;;;;;;1.20;1.20;;;27.50;62.60;;;;;;5031392;28;20967;-70
2023/06/15 10:07:04;;;;;;;0.95;0.95;;;27.50;61.60;;;;;;5033224;28;20438;-70
2023/06/15 10:09:45;;;;;;;0.73;0.70;;;27.00;60.00;;;;;;5035055;28;20935;-70
2023/06/15 10:12:16;;;;;;;0.80;0.80;;;27.50;61.80;;;;;;5042014;28;20425;-70
2023/06/15 10:14:52;;;;;;;1.00;1.00;;;27.70;63.20;;;;;;5033103;28;20495;-70
2023/06/15 10:17:30;;;;;;;0.80;0.80;;;28.30;66.50;;;;;;5036097;28;20535;-70
2023/06/15 10:20:09;;;;;;;1.20;1.20;;;28.10;65.40;;;;;;5037512;28;20448;-70
2023/06/15 10:22:46;;;;;;;1.00;1.00;;;28.10;64.80;;;;;;5037774;28;20562;-72
2023/06/15 10:25:15;;;;;;;0.88;0.88;;;28.30;65.60;;;;;;5032305;28;20443;-72
2023/06/15 10:27:44;;;;;;;1.10;0.80;;;28.80;68.50;;;;;;5033479;28;20573;-72
2023/06/15 10:30:18;;;;;;;0.90;0.90;;;28.20;65.90;;;;;;5037152;28;20927;-72
2023/06/15 10:32:45;;;;;;;1.08;1.08;;;28.50;67.40;;;;;;5033920;28;20444;-72
2023/06/15 10:35:32;;;;;;;0.90;0.90;;;29.10;70.20;;;;;;5034713;28;20527;-72
2023/06/15 10:38:22;;;;;;;1.13;1.10;;;29.00;69.70;;;;;;5037364;28;20437;-71
2023/06/15 10:40:49;;;;;;;1.10;1.10;;;29.00;71.00;;;;;;5065721;28;20551;-71
2023/06/15 10:43:18;;;;;;;1.10;1.08;;;29.60;73.40;;;;;;5038885;28;20688;-72
2023/06/15 10:45:45;;;;;;;0.90;0.90;;;29.80;74.70;;;;;;5037839;28;20435;-71
2023/06/15 10:48:22;;;;;;;1.15;1.15;;;29.40;71.00;;;;;;5070456;28;20464;-72
2023/06/15 10:50:50;;;;;;;0.70;0.70;;;29.90;74.50;;;;;;5042110;28;20832;-72
2023/06/15 10:53:25;;;;;;;0.80;0.80;;;30.20;76.40;;;;;;5039259;28;20935;-72
2023/06/15 10:55:57;;;;;;;0.80;0.80;;;30.90;81.20;;;;;;5036946;28;20926;-72
2023/06/15 10:58:29;;;;;;;1.02;1.02;;;30.40;77.40;;;;;;5036730;28;20429;-71
2023/06/15 11:01:19;;;;;;;0.90;0.90;;;30.80;78.70;;;;;;5037318;28;20436;-72
2023/06/15 11:03:46;;;;;;;0.80;0.80;;;31.10;80.00;;;;;;5035553;28;20488;-71
2023/06/15 11:06:21;;;;;;;0.90;0.90;;;31.50;81.10;;;;;;5036883;28;20443;-72
2023/06/15 11:08:52;;;;;;;0.77;0.77;;;30.60;90.80;;;;;;5038131;28;20768;-71
2023/06/15 11:11:31;;;;;;;1.17;0.82;;;30.20;75.10;;;;;;5039480;28;20877;-72
2023/06/15 11:14:02;;;;;;;0.95;0.80;;;31.00;91.40;;;;;;5040408;28;20435;-71
2023/06/15 11:16:37;;;;;;;0.80;0.80;;;31.30;79.40;;;;;;5038043;28;20852;-72
2023/06/15 11:19:10;;;;;;;0.90;0.90;;;31.70;81.00;;;;;;5039430;28;20612;-72
2023/06/15 11:21:56;;;;;;;0.68;0.68;;;31.40;80.50;;;;;;5040708;28;20467;-71
2023/06/15 11:24:36;;;;;;;0.90;0.90;;;29.90;72.80;;;;;;5066834;28;20440;-70
2023/06/15 11:27:12;;;;;;;1.02;0.98;;;29.80;71.30;;;;;;5037965;28;20449;-70
2023/06/15 11:29:41;;;;;;;0.80;0.77;;;30.10;71.60;;;;;;5038075;28;21017;-70
2023/06/15 11:32:10;;;;;;;0.80;0.80;;;29.80;70.50;;;;;;5038084;28;20420;-70
2023/06/15 11:34:38;;;;;;;0.80;0.80;;;29.30;67.00;;;;;;5040280;28;20444;-70
2023/06/15 11:37:11;;;;;;;0.90;0.70;;;28.30;62.00;;;;;;5039820;28;20523;-70
2023/06/15 11:39:43;;;;;;;1.15;0.75;;;28.00;58.60;;;;;;5068126;28;20455;-71
2023/06/15 11:42:10;;;;;;;0.90;0.90;;;27.30;54.30;;;;;;5042094;28;20907;-71
2023/06/15 11:44:44;;;;;;;0.75;0.70;;;27.40;55.50;;;;;;5038550;28;20853;-71
2023/06/15 11:47:11;;;;;;;1.02;1.02;;;28.00;58.90;;;;;;5034997;28;20943;-71
2023/06/15 11:49:38;;;;;;;0.77;0.77;;;29.10;64.60;;;;;;5039465;28;20438;-71
2023/06/15 11:52:07;;;;;;;0.80;0.80;;;29.80;69.10;;;;;;5040239;28;20445;-71
2023/06/15 11:54:34;;;;;;;0.60;0.60;;;29.20;65.90;;;;;;5039620;28;20439;-71
2023/06/15 11:57:05;;;;;;;0.70;0.70;;;29.20;65.50;;;;;;5069054;28;20513;-71
2023/06/15 11:59:35;;;;;;;0.90;0.90;;;29.00;65.90;;;;;;5036109;28;20800;-71
2023/06/15 12:02:04;;;;;;;0.70;0.70;;;29.30;66.40;;;;;;5035680;28;20440;-71
2023/06/15 12:04:34;;;;;;;0.80;0.80;;;30.10;69.90;;;;;;5035976;28;20455;-71
2023/06/15 12:07:01;;;;;;;0.68;0.68;;;30.50;72.90;;;;;;5029494;28;20433;-71
2023/06/15 12:09:28;;;;;;;0.95;0.95;;;30.50;71.70;;;;;;5037501;28;20495;-72
2023/06/15 12:11:55;;;;;;;0.70;0.70;;;30.20;70.90;;;;;;5044769;28;20773;-71
2023/06/15 12:14:24;;;;;;;0.50;0.50;;;30.40;72.90;;;;;;5038734;28;20935;-71
2023/06/15 12:16:52;;;;;;;1.10;1.00;;;30.40;87.20;;;;;;5039684;28;20781;-71
2023/06/15 12:19:20;;;;;;;0.70;0.70;;;29.60;67.30;;;;;;5040810;28;20933;-71
2023/06/15 12:21:47;;;;;;;2.47;0.80;;;30.10;69.40;;;;;;5040201;28;20827;-71
2023/06/15 12:24:20;;;;;;;0.82;0.82;;;30.10;70.30;;;;;;5038946;28;20425;-71
2023/06/15 12:26:57;;;;;;;0.70;0.70;;;29.80;68.50;;;;;;5038809;28;20912;-71
2023/06/15 12:29:25;;;;;;;1.50;0.70;;;30.20;70.80;;;;;;5032342;28;20440;-71
2023/06/15 12:31:53;;;;;;;1.10;0.77;;;30.20;70.50;;;;;;5039889;28;20953;-71
2023/06/15 12:34:25;;;;;;;0.70;0.70;;;30.20;70.10;;;;;;5036672;28;20576;-72
2023/06/15 12:36:54;;;;;;;0.75;0.75;;;30.60;72.60;;;;;;5032712;28;20436;-71
2023/06/15 12:39:26;;;;;;;0.70;0.70;;;30.70;72.20;;;;;;5031342;28;22756;-72
2023/06/15 12:42:01;;;;;;;0.80;0.80;;;30.70;71.90;;;;;;5038649;28;20497;-69
2023/06/15 12:44:34;;;;;;;2.42;0.90;;;30.60;71.30;;;;;;5038781;28;20516;-71
2023/06/15 12:47:01;;;;;;;0.88;0.88;;;30.90;73.50;;;;;;5034545;28;20440;-71
2023/06/15 12:49:28;;;;;;;0.80;0.80;;;30.80;72.90;;;;;;5035172;28;20887;-71
2023/06/15 12:51:54;;;;;;;0.60;0.60;;;30.20;70.00;;;;;;5031858;28;20541;-70
2023/06/15 12:54:25;;;;;;;1.00;1.00;;;30.90;73.30;;;;;;5031025;28;20781;-70
2023/06/15 12:56:55;;;;;;;0.65;0.65;;;31.10;73.60;;;;;;5036765;28;20437;-70
2023/06/15 12:59:22;;;;;;;0.70;0.70;;;31.80;76.70;;;;;;5035947;28;21040;-71